.
WxDataArchive / Data Records for 2010-03-17
2010-03-16 March 2010 2010-03-18

Data Records for Wednesday, 17 March 2010

Time	Temp	Chill	HIndex	Humid	Dewpt	 Wind 	HiWind	WindDir	Rain 	Barom 
-----	----	-----	------	-----	-----	------	------	-------	-----	----- 
00:00	37.9	37.9	37.9	73	30.0	0	0	---	0.00	30.149 
00:05	37.8	37.8	37.8	74	30.3	0	0	---	0.00	30.149 
00:10	37.8	37.8	37.8	76	30.9	0	0	---	0.00	30.149 
00:15	37.8	37.8	37.8	78	31.6	0	0	---	0.00	30.149 
00:20	37.6	37.6	37.6	79	31.7	0	0	---	0.00	30.149 
00:25	37.5	37.5	37.5	80	31.9	0	0	---	0.00	30.149 
00:30	37.2	37.2	37.2	80	31.6	0	0	---	0.00	30.149 
00:35	37.0	37.0	37.0	79	31.1	0	0	---	0.00	30.149 
00:40	36.6	36.6	36.6	78	30.4	0	0	---	0.00	30.149 
00:45	36.5	36.5	36.5	78	30.3	0	0	---	0.00	30.145 
00:50	36.0	36.0	36.0	78	29.8	0	0	---	0.00	30.145 
00:55	35.9	35.9	35.9	78	29.7	0	0	---	0.00	30.145 
01:00	35.8	35.8	35.8	78	29.6	0	0	---	0.00	30.143 
01:05	35.6	35.6	35.6	79	29.7	0	0	---	0.00	30.143 
01:10	35.5	35.5	35.5	79	29.6	0	0	---	0.00	30.143 
01:15	35.3	35.3	35.3	79	29.4	0	0	---	0.00	30.139 
01:20	35.2	35.2	35.2	79	29.4	0	0	---	0.00	30.139 
01:25	35.0	35.0	35.0	79	29.2	0	0	---	0.00	30.139 
01:30	35.0	35.0	35.0	79	29.2	0	0	---	0.00	30.138 
01:35	35.0	35.0	35.0	79	29.2	0	0	---	0.00	30.138 
01:40	35.2	35.2	35.2	78	29.0	0	0	---	0.00	30.138 
01:45	35.2	35.2	35.2	77	28.7	0	0	---	0.00	30.138 
01:50	35.2	35.2	35.2	77	28.7	0	0	---	0.00	30.138 
01:55	35.2	35.2	35.2	77	28.7	0	0	---	0.00	30.138 
02:00	35.0	35.0	35.0	77	28.5	0	0	---	0.00	30.137 
02:05	34.9	34.9	34.9	78	28.7	0	0	---	0.00	30.137 
02:10	34.7	34.7	34.7	79	28.9	0	0	---	0.00	30.137 
02:15	34.6	34.6	34.6	80	29.1	0	0	---	0.00	30.137 
02:20	34.3	34.3	34.3	80	28.8	0	0	---	0.00	30.137 
02:25	34.0	34.0	34.0	80	28.5	0	0	---	0.00	30.137 
02:30	33.8	33.8	33.8	81	28.6	0	0	---	0.00	30.138 
02:35	33.7	33.7	33.7	81	28.5	0	0	---	0.00	30.138 
02:40	33.5	33.5	33.5	82	28.6	0	0	---	0.00	30.138 
02:45	33.4	33.4	33.4	82	28.5	0	0	---	0.00	30.140 
02:50	33.2	33.2	33.2	83	28.6	0	0	---	0.00	30.140 
02:55	33.1	33.1	33.1	84	28.8	0	0	---	0.00	30.140 
03:00	33.1	33.1	33.1	84	28.8	0	0	---	0.00	30.144 
03:05	33.1	33.1	33.1	84	28.8	0	0	---	0.00	30.144 
03:10	33.1	33.1	33.1	84	28.8	0	0	---	0.00	30.144 
03:15	33.1	33.1	33.1	85	29.1	0	0	---	0.00	30.146 
03:20	33.1	33.1	33.1	84	28.8	0	0	---	0.00	30.146 
03:25	32.9	32.9	32.9	84	28.6	0	0	---	0.00	30.146 
03:30	32.8	32.8	32.8	84	28.5	0	0	---	0.00	30.143 
03:35	32.7	32.7	32.7	84	28.4	0	0	---	0.00	30.143 
03:40	32.7	32.7	32.7	85	28.7	0	0	---	0.00	30.143 
03:45	32.5	32.5	32.5	85	28.5	0	0	---	0.00	30.140 
03:50	32.4	32.4	32.4	85	28.4	0	0	---	0.00	30.140 
03:55	32.2	32.2	32.2	85	28.2	0	0	---	0.00	30.140 
04:00	32.1	32.1	32.1	85	28.1	0	0	---	0.00	30.140 
04:05	32.1	32.1	32.1	86	28.4	0	0	---	0.00	30.140 
04:10	31.9	31.9	31.9	86	28.2	0	0	---	0.00	30.140 
04:15	31.9	31.9	31.9	86	28.2	0	0	---	0.00	30.138 
04:20	31.8	31.8	31.8	86	28.1	0	0	---	0.00	30.138 
04:25	31.6	31.6	31.6	86	27.9	0	0	---	0.00	30.138 
04:30	31.5	31.5	31.5	87	28.1	0	0	---	0.00	30.136 
04:35	31.5	31.5	31.5	87	28.1	0	0	---	0.00	30.136 
04:40	31.5	31.5	31.5	87	28.1	0	0	---	0.00	30.136 
04:45	31.3	31.3	31.3	87	27.9	0	0	---	0.00	30.134 
04:50	31.3	31.3	31.3	88	28.2	0	0	---	0.00	30.134 
04:55	31.2	31.2	31.2	88	28.1	0	0	---	0.00	30.134 
05:00	31.2	31.2	31.2	88	28.1	0	0	---	0.00	30.133 
05:05	31.2	31.2	31.2	88	28.1	0	0	---	0.00	30.133 
05:10	31.3	31.3	31.3	89	28.4	0	0	---	0.00	30.133 
05:15	31.3	31.3	31.3	89	28.4	0	0	---	0.00	30.130 
05:20	31.3	31.3	31.3	89	28.4	0	0	---	0.00	30.130 
05:25	31.0	31.0	31.0	89	28.1	0	0	---	0.00	30.130 
05:30	30.9	30.9	30.9	89	28.0	0	0	---	0.00	30.129 
05:35	30.7	30.7	30.7	89	27.8	0	0	---	0.00	30.129 
05:40	30.6	30.6	30.6	89	27.8	0	0	---	0.00	30.129 
05:45	30.4	30.4	30.4	89	27.6	0	0	---	0.00	30.128 
05:50	30.3	30.3	30.3	89	27.5	0	0	---	0.00	30.128 
05:55	30.1	30.1	30.1	89	27.3	0	0	---	0.00	30.128 
06:00	30.1	30.1	30.1	89	27.3	0	0	---	0.00	30.128 
06:05	30.0	30.0	30.0	89	27.2	0	0	---	0.00	30.128 
06:10	29.8	29.8	29.8	89	27.0	0	0	---	0.00	30.128 
06:15	29.8	29.8	29.8	89	27.0	0	0	---	0.00	30.130 
06:20	29.8	29.8	29.8	90	27.2	0	0	---	0.00	30.130 
06:25	29.8	29.8	29.8	90	27.2	0	0	---	0.00	30.130 
06:30	29.8	29.8	29.8	90	27.2	0	0	---	0.00	30.133 
06:35	29.7	29.7	29.7	90	27.1	0	0	---	0.00	30.133 
06:40	29.7	29.7	29.7	90	27.1	0	0	---	0.00	30.133 
06:45	29.7	29.7	29.7	90	27.1	0	0	---	0.00	30.141 
06:50	29.5	29.5	29.5	90	26.9	0	0	---	0.00	30.141 
06:55	29.4	29.4	29.4	90	26.8	0	0	---	0.00	30.141 
07:00	29.3	29.3	29.3	90	26.7	0	0	---	0.00	30.144 
07:05	29.1	29.1	29.1	90	26.5	0	0	---	0.00	30.144 
07:10	29.0	29.0	29.0	90	26.4	0	0	---	0.00	30.144 
07:15	29.0	29.0	29.0	91	26.7	0	0	---	0.00	30.149 
07:20	29.0	29.0	29.0	91	26.7	0	0	---	0.00	30.149 
07:25	28.8	28.8	28.8	91	26.5	0	0	---	0.00	30.149 
07:30	28.8	28.8	28.8	91	26.5	0	0	---	0.00	30.150 
07:35	28.8	28.8	28.8	91	26.5	0	0	---	0.00	30.150 
07:40	28.7	28.7	28.7	91	26.4	0	0	---	0.00	30.150 
07:45	28.7	28.7	28.7	91	26.4	0	0	---	0.00	30.150 
07:50	28.5	28.5	28.5	91	26.2	0	0	---	0.00	30.150 
07:55	28.5	28.5	28.5	91	26.2	0	0	---	0.00	30.150 
08:00	28.7	28.7	28.7	91	26.4	0	0	---	0.00	30.149 
08:05	28.7	28.7	28.7	91	26.4	0	0	---	0.00	30.149 
08:10	28.8	28.8	28.8	91	26.5	0	0	---	0.00	30.149 
08:15	28.8	28.8	28.8	91	26.5	0	0	---	0.00	30.156 
08:20	29.0	29.0	29.0	91	26.7	0	0	---	0.00	30.156 
08:25	29.3	29.3	29.3	92	27.3	0	0	---	0.00	30.156 
08:30	30.0	30.0	30.0	93	28.2	0	0	---	0.00	30.165 
08:35	31.0	31.0	31.0	93	29.2	0	0	---	0.00	30.165 
08:40	31.9	31.9	31.9	93	30.1	0	0	---	0.00	30.165 
08:45	32.4	32.4	32.4	92	30.3	0	0	---	0.00	30.165 
08:50	32.5	32.5	32.5	92	30.4	0	0	---	0.00	30.165 
08:55	32.8	32.8	32.8	91	30.5	0	0	---	0.00	30.165 
09:00	33.4	33.4	33.4	91	31.1	0	0	---	0.00	30.160 
09:05	34.1	34.1	34.1	92	32.0	0	0	---	0.00	30.160 
09:10	35.0	35.0	35.0	90	32.4	0	0	---	0.00	30.160 
09:15	35.5	35.5	35.5	89	32.6	0	0	---	0.00	30.161 
09:20	36.0	36.0	36.0	88	32.8	0	0	---	0.00	30.161 
09:25	36.6	36.6	36.6	86	32.8	0	0	---	0.00	30.161 
09:30	37.0	37.0	37.0	84	32.6	0	0	---	0.00	30.156 
09:35	37.8	37.8	37.8	82	32.8	0	0	---	0.00	30.156 
09:40	38.5	38.5	38.5	79	32.6	0	0	---	0.00	30.156 
09:45	39.3	39.3	39.3	77	32.7	0	0	---	0.00	30.159 
09:50	40.2	40.2	40.2	70	31.2	0	1	315	0.00	30.159 
09:55	41.1	41.1	41.1	67	31.0	0	1	315	0.00	30.159 
10:00	41.9	41.9	41.9	66	31.4	0	1	315	0.00	30.159 
10:05	42.9	42.9	42.9	63	31.2	0	1	315	0.00	30.159 
10:10	43.8	43.8	43.8	61	31.2	0	1	315	0.00	30.159 
10:15	44.6	44.6	44.6	62	32.4	0	1	315	0.00	30.154 
10:20	45.5	45.5	45.5	62	33.2	0	2	315	0.00	30.154 
10:25	46.4	46.4	46.4	60	33.3	0	2	315	0.00	30.154 
10:30	47.3	47.3	47.3	57	32.8	0	0	---	0.00	30.157 
10:35	48.3	48.3	48.3	53	32.0	0	0	---	0.00	30.157 
10:40	49.4	49.4	49.4	53	33.0	0	0	---	0.00	30.157 
10:45	50.4	50.4	50.4	48	31.5	0	0	---	0.00	30.154 
10:50	51.6	51.6	51.6	47	32.0	0	2	315	0.00	30.154 
10:55	52.3	52.3	52.3	45	31.6	0	1	315	0.00	30.154 
11:00	53.2	53.2	53.2	45	32.4	0	1	315	0.00	30.149 
11:05	53.9	53.9	53.9	40	30.1	0	2	315	0.00	30.149 
11:10	54.4	54.4	54.4	40	30.6	0	2	315	0.00	30.149 
11:15	54.5	54.5	54.5	38	29.4	0	2	315	0.00	30.151 
11:20	54.7	54.7	54.7	41	31.5	1	2	45	0.00	30.151 
11:25	55.0	55.0	55.0	40	31.1	0	1	45	0.00	30.151 
11:30	55.4	55.4	55.4	35	28.2	1	2	45	0.00	30.153 
11:35	55.9	55.9	55.9	35	28.7	0	4	45	0.00	30.153 
11:40	55.9	55.9	55.9	31	25.7	1	4	90	0.00	30.153 
11:45	56.0	56.0	56.0	31	25.8	0	2	90	0.00	30.149 
11:50	56.2	56.2	56.2	30	25.2	1	3	90	0.00	30.149 
11:55	55.7	55.7	55.7	31	25.5	1	3	90	0.00	30.149 
12:00	55.9	55.9	55.9	31	25.7	1	3	90	0.00	30.141 
12:05	56.2	56.2	56.2	36	29.6	0	1	90	0.00	30.141 
12:10	56.6	56.6	56.6	36	30.0	0	2	90	0.00	30.141 
12:15	57.2	57.2	57.2	32	27.6	0	2	90	0.00	30.142 
12:20	57.6	57.6	57.6	30	26.4	1	3	90	0.00	30.142 
12:25	57.6	57.6	57.6	33	28.7	0	1	90	0.00	30.142 
12:30	57.6	57.6	57.6	30	26.4	1	4	90	0.00	30.138 
12:35	57.5	57.5	57.5	34	29.4	1	3	90	0.00	30.138 
12:40	57.5	57.5	57.5	27	23.8	1	3	90	0.00	30.138 
12:45	57.8	57.8	57.8	30	26.6	1	5	90	0.00	30.135 
12:50	57.6	57.6	57.6	29	25.6	1	3	90	0.00	30.135 
12:55	58.1	58.1	58.1	30	26.8	0	1	90	0.00	30.135 
13:00	58.6	58.6	58.6	28	25.6	0	1	90	0.00	30.131 
13:05	58.9	58.9	58.9	28	25.9	0	2	90	0.00	30.131 
13:10	59.0	59.0	59.0	26	24.2	0	1	112	0.00	30.131 
13:15	59.3	59.3	59.3	26	24.4	0	1	112	0.00	30.128 
13:20	59.6	59.6	59.6	29	27.3	0	3	112	0.00	30.128 
13:25	59.9	59.9	59.9	27	25.8	1	4	112	0.00	30.128 
13:30	59.9	59.9	59.9	27	25.8	1	3	112	0.00	30.123 
13:35	59.9	59.9	59.9	27	25.8	0	1	112	0.00	30.123 
13:40	60.1	60.1	60.1	27	26.0	0	3	248	0.00	30.123 
13:45	60.2	60.2	60.2	26	25.2	1	4	90	0.00	30.120 
13:50	60.5	60.5	60.5	27	26.4	1	3	248	0.00	30.120 
13:55	60.1	60.1	60.1	26	25.1	2	5	112	0.00	30.120 
14:00	59.8	59.8	59.8	26	24.9	1	4	90	0.00	30.116 
14:05	59.6	59.6	59.6	25	23.7	1	5	90	0.00	30.116 
14:10	59.5	59.5	59.5	29	27.2	1	4	90	0.00	30.116 
14:15	59.8	59.8	59.8	28	26.6	1	3	112	0.00	30.110 
14:20	60.2	60.2	60.2	26	25.2	0	1	112	0.00	30.110 
14:25	60.7	60.7	60.7	26	25.6	1	5	112	0.00	30.110 
14:30	60.2	60.2	60.2	24	23.3	2	5	112	0.00	30.108 
14:35	60.2	60.2	60.2	30	28.7	1	4	112	0.00	30.108 
14:40	60.2	60.2	60.2	25	24.3	1	4	112	0.00	30.108 
14:45	60.2	60.2	60.2	27	26.1	0	2	112	0.00	30.100 
14:50	60.2	60.2	60.2	27	26.1	2	5	90	0.00	30.100 
14:55	59.9	59.9	59.9	26	24.9	1	4	112	0.00	30.100 
15:00	60.1	60.1	60.1	25	24.2	1	3	112	0.00	30.093 
15:05	60.4	60.4	60.4	27	26.3	0	3	112	0.00	30.093 
15:10	60.9	60.9	60.9	27	26.7	1	3	112	0.00	30.093 
15:15	61.2	61.2	61.2	26	26.0	1	5	112	0.00	30.088 
15:20	60.7	60.7	60.7	24	23.7	2	5	112	0.00	30.088 
15:25	60.5	60.5	60.5	25	24.5	1	5	112	0.00	30.088 
15:30	60.2	60.2	60.2	24	23.3	2	4	112	0.00	30.079 
15:35	60.4	60.4	60.4	25	24.4	0	2	90	0.00	30.079 
15:40	61.0	61.0	61.0	26	25.9	0	1	90	0.00	30.079 
15:45	61.5	61.5	61.5	25	25.4	0	2	90	0.00	30.076 
15:50	61.8	61.8	61.8	24	24.6	0	2	90	0.00	30.076 
15:55	61.6	61.6	61.6	24	24.5	1	3	90	0.00	30.076 
16:00	61.8	61.8	61.8	26	26.6	0	2	135	0.00	30.071 
16:05	62.1	62.1	62.1	25	25.9	0	2	135	0.00	30.071 
16:10	62.1	62.1	62.1	27	27.7	1	4	135	0.00	30.071 
16:15	62.1	62.1	62.1	26	26.8	0	2	135	0.00	30.070 
16:20	62.3	62.3	62.3	25	26.0	0	2	135	0.00	30.070 
16:25	62.3	62.3	62.3	25	26.0	1	3	135	0.00	30.070 
16:30	61.8	61.8	61.8	26	26.6	2	7	112	0.00	30.064 
16:35	61.5	61.5	61.5	27	27.2	3	6	90	0.00	30.064 
16:40	61.6	61.6	61.6	25	25.4	1	2	90	0.00	30.064 
16:45	62.0	62.0	62.0	27	27.6	0	2	90	0.00	30.063 
16:50	62.1	62.1	62.1	25	25.9	0	2	90	0.00	30.063 
16:55	62.1	62.1	62.1	25	25.9	0	2	90	0.00	30.063 
17:00	62.0	62.0	62.0	26	26.7	0	3	90	0.00	30.061 
17:05	62.0	62.0	62.0	25	25.8	0	2	90	0.00	30.061 
17:10	62.0	62.0	62.0	24	24.8	0	2	90	0.00	30.061 
17:15	62.0	62.0	62.0	24	24.8	0	2	22	0.00	30.060 
17:20	62.1	62.1	62.1	29	29.5	0	1	22	0.00	30.060 
17:25	62.1	62.1	62.1	24	24.9	0	2	22	0.00	30.060 
17:30	62.1	62.1	62.1	27	27.7	0	2	22	0.00	30.054 
17:35	62.0	62.0	62.0	24	24.8	1	2	112	0.00	30.054 
17:40	61.8	61.8	61.8	23	23.6	1	4	112	0.00	30.054 
17:45	61.6	61.6	61.6	26	26.4	0	2	112	0.00	30.048 
17:50	61.6	61.6	61.6	25	25.4	0	1	112	0.00	30.048 
17:55	61.6	61.6	61.6	25	25.4	0	1	112	0.00	30.048 
18:00	61.5	61.5	61.5	26	26.3	1	3	112	0.00	30.046 
18:05	61.3	61.3	61.3	24	24.2	1	3	112	0.00	30.046 
18:10	61.2	61.2	61.2	26	26.0	1	3	112	0.00	30.046 
18:15	61.2	61.2	61.2	26	26.0	1	5	135	0.00	30.047 
18:20	61.0	61.0	61.0	26	25.9	1	3	135	0.00	30.047 
18:25	60.9	60.9	60.9	26	25.8	1	3	135	0.00	30.047 
18:30	60.7	60.7	60.7	26	25.6	0	2	135	0.00	30.045 
18:35	60.7	60.7	60.7	26	25.6	1	2	112	0.00	30.045 
18:40	60.7	60.7	60.7	26	25.6	0	3	90	0.00	30.045 
18:45	60.5	60.5	60.5	27	26.4	0	1	90	0.00	30.042 
18:50	60.4	60.4	60.4	27	26.3	0	1	90	0.00	30.042 
18:55	60.1	60.1	60.1	27	26.0	0	1	90	0.00	30.042 
19:00	59.9	59.9	59.9	26	24.9	0	1	90	0.00	30.040 
19:05	59.8	59.8	59.8	27	25.8	0	0	---	0.00	30.040 
19:10	59.5	59.5	59.5	27	25.5	0	0	---	0.00	30.040 
19:15	59.2	59.2	59.2	28	26.1	0	0	---	0.00	30.040 
19:20	58.7	58.7	58.7	27	24.8	0	0	---	0.00	30.040 
19:25	58.4	58.4	58.4	28	25.4	0	0	---	0.00	30.040 
19:30	58.1	58.1	58.1	28	25.2	0	1	90	0.00	30.040 
19:35	57.8	57.8	57.8	30	26.6	0	0	---	0.00	30.040 
19:40	57.2	57.2	57.2	30	26.1	0	0	---	0.00	30.040 
19:45	56.7	56.7	56.7	30	25.6	0	0	---	0.00	30.041 
19:50	56.2	56.2	56.2	31	26.0	0	1	90	0.00	30.041 
19:55	55.7	55.7	55.7	32	26.3	0	0	---	0.00	30.041 
20:00	55.1	55.1	55.1	34	27.2	0	0	---	0.00	30.044 
20:05	54.5	54.5	54.5	35	27.4	0	0	---	0.00	30.044 
20:10	53.9	53.9	53.9	36	27.6	0	0	---	0.00	30.044 
20:15	53.2	53.2	53.2	37	27.6	0	0	---	0.00	30.042 
20:20	52.5	52.5	52.5	39	28.3	0	0	---	0.00	30.042 
20:25	51.9	51.9	51.9	40	28.3	0	0	---	0.00	30.042 
20:30	51.0	51.0	51.0	42	28.7	0	0	---	0.00	30.044 
20:35	50.4	50.4	50.4	44	29.3	0	0	---	0.00	30.044 
20:40	49.9	49.9	49.9	45	29.4	0	0	---	0.00	30.044 
20:45	49.4	49.4	49.4	46	29.5	0	0	---	0.00	30.050 
20:50	48.9	48.9	48.9	48	30.1	0	0	---	0.00	30.050 
20:55	48.3	48.3	48.3	49	30.0	0	0	---	0.00	30.050 
21:00	47.9	47.9	47.9	50	30.2	0	0	---	0.00	30.051 
21:05	47.6	47.6	47.6	50	29.9	0	0	---	0.00	30.051 
21:10	47.3	47.3	47.3	50	29.6	0	0	---	0.00	30.051 
21:15	46.8	46.8	46.8	50	29.2	0	0	---	0.00	30.041 
21:20	46.5	46.5	46.5	52	29.8	0	0	---	0.00	30.041 
21:25	46.2	46.2	46.2	51	29.1	0	0	---	0.00	30.041 
21:30	46.1	46.1	46.1	52	29.5	0	0	---	0.00	30.043 
21:35	45.8	45.8	45.8	53	29.7	0	0	---	0.00	30.043 
21:40	45.5	45.5	45.5	53	29.4	0	0	---	0.00	30.043 
21:45	45.2	45.2	45.2	54	29.6	0	0	---	0.00	30.044 
21:50	44.9	44.9	44.9	54	29.3	0	0	---	0.00	30.044 
21:55	44.6	44.6	44.6	55	29.4	0	0	---	0.00	30.044 
22:00	44.5	44.5	44.5	56	29.8	0	0	---	0.00	30.042 
22:05	44.2	44.2	44.2	57	29.9	0	1	90	0.00	30.042 
22:10	44.5	44.5	44.5	54	28.9	0	0	---	0.00	30.042 
22:15	44.9	44.9	44.9	53	28.8	0	1	90	0.00	30.039 
22:20	45.1	45.1	45.1	52	28.5	0	0	---	0.00	30.039 
22:25	45.1	45.1	45.1	51	28.1	0	0	---	0.00	30.039 
22:30	44.9	44.9	44.9	50	27.4	0	0	---	0.00	30.039 
22:35	45.1	45.1	45.1	50	27.6	0	0	---	0.00	30.039 
22:40	45.1	45.1	45.1	50	27.6	0	0	---	0.00	30.039 
22:45	44.8	44.8	44.8	52	28.3	0	0	---	0.00	30.039 
22:50	44.5	44.5	44.5	51	27.5	0	0	---	0.00	30.039 
22:55	44.1	44.1	44.1	51	27.1	0	0	---	0.00	30.039 
23:00	43.6	43.6	43.6	53	27.6	0	0	---	0.00	30.041 
23:05	43.2	43.2	43.2	52	26.8	0	0	---	0.00	30.041 
23:10	42.8	42.8	42.8	54	27.3	0	0	---	0.00	30.041 
23:15	42.3	42.3	42.3	54	26.9	0	0	---	0.00	30.039 
23:20	41.9	41.9	41.9	54	26.5	0	0	---	0.00	30.039 
23:25	41.6	41.6	41.6	57	27.5	0	0	---	0.00	30.039 
23:30	41.2	41.2	41.2	56	26.7	0	0	---	0.00	30.040 
23:35	40.9	40.9	40.9	58	27.3	0	0	---	0.00	30.040 
23:40	40.8	40.8	40.8	58	27.2	0	0	---	0.00	30.040 
23:45	40.6	40.6	40.6	58	27.0	0	0	---	0.00	30.037 
23:50	40.3	40.3	40.3	58	26.7	0	0	---	0.00	30.037 
23:55	40.1	40.1	40.1	58	26.5	0	0	---	0.00	30.037 

CoCoRaHS
IN-AL-39
A2 Web Hosting
Creative Commons License
GoDaddy
search engine by freefind advanced

loaded 2018-11-16 11:45:44 • last modified 2010-11-18 10:43:29
Privacy PolicyDisclaimer
• wx.awcolley.com is powered by PmWiki v.2002016 •
• all content (unless otherwise noted) © 2018 A W Colley